Praia, Cape Verde
Current Conditions -  °F | °C
As of 1:00 PM on Friday 24 Oct 2014 (Local Time) from GVNP Reporting Station
Scattered Clouds Scattered Clouds  
Wind Chill: 88°   Ceiling: Unl
Heat Index: 98°   Visibility: 6mi
Dew Point: 75°   Wind: 7mph
Humidity: 66%   Direction: 180°S
Pressure: 29.91"   Gusts: NA
Location:  14.93°N, 23.54°W
Report Text: GVNP 241400Z 18006KT 9999 FEW016 SCT200 31/24 Q1013 NOSIG
Loading
Personal Weather Stations






























Interactive Weather Map New forecast layout! Learn more

10-Day Weather Forecast

Advertisements
Track Severe Weather on mobile